Hauptseite
METAR-TAF:

METAR-TAF

Flughäfen :

Flughafen Lannion-Côte de Granit

Lannion, Frankreich

Breite: 48-45N, Länge: 003-28W, Höhe: 89 m

Beobachtung

Neuester Wetterbericht von vor 41 Minuten, um 03:30 UTC
Wind 5 kt aus West
Temperatur 11°C
Luftfeuchtigkeit 94%
Luftdruck 1008 hPa
Sichtweite 10 km oder mehr
Leicht bewölkt in der Höhe von 4100 ft
Geschlossene Wolkendecke in der Höhe von 6200 ft

METAR: LFRO 070330Z AUTO 26005KT 9999 FEW041 OVC062 11/10 Q1008

Zeit: 06:11 (04:11 UTC)


TAF: fehlend

Wetterbeobachtungen und Prognosen von mehr als 4000 Flughäfen (METAR und TAF Bericht).

Die verfügbaren Stationen werden durch gelbe und rote Markierungen auf der Karte dargestellt.

Führen Sie die Maus auf sie, um den Namen der Station zu sehen.

Darauf klicken, um die Beobachtung von Wetterbeobachtungen und Prognosen zu sehen.

Um die Karte zu ändern : klicken Sie auf den grünen Tasten mit einem schwarzen Kreuz Zum Vergrößern, auf den grünen Button mit einem Gedankenstrich zu verkleinern, oder auf die grünen Pfeile für benachbarte Karten.


METAR-TAF: